Time;durP1;ratioP1;P1;durP2;ratioP2;P2;SDS_P1;SDS_P2;PMS_P1;PMS_P2;Temp;Humidity;BMP_temperature;BMP_pressure;BME280_temperature;BME280_humidity;BME280_pressure;Samples;Min_cycle;Max_cycle;Signal;HPM_P1;HPM_P2
2023/12/12 00:01:38;;;;;;;4.00;2.20;;;;;;;;;;6096618;23;20022;-92
2023/12/12 00:04:06;;;;;;;2.22;2.03;;;;;;;;;;6096615;23;20018;-92
2023/12/12 00:06:33;;;;;;;2.10;2.00;;;;;;;;;;6096469;23;20584;-92
2023/12/12 00:09:00;;;;;;;1.90;1.80;;;;;;;;;;6096673;23;20033;-93
2023/12/12 00:11:27;;;;;;;1.98;1.60;;;;;;;;;;6096975;23;20059;-92
2023/12/12 00:13:55;;;;;;;1.85;1.55;;;;;;;;;;6097751;23;20072;-93
2023/12/12 00:16:22;;;;;;;2.00;1.70;;;;;;;;;;6097795;23;20447;-92
2023/12/12 00:18:49;;;;;;;2.78;1.30;;;;;;;;;;6097716;23;20018;-92
2023/12/12 00:21:17;;;;;;;2.92;1.80;;;;;;;;;;6097759;23;20021;-92
2023/12/12 00:23:44;;;;;;;3.88;1.60;;;;;;;;;;6097590;23;20022;-92
2023/12/12 00:26:12;;;;;;;1.50;1.40;;;;;;;;;;6097284;23;20381;-93
2023/12/12 00:28:41;;;;;;;2.38;1.20;;;;;;;;;;6097782;23;20014;-92
2023/12/12 00:31:08;;;;;;;4.10;1.65;;;;;;;;;;6097620;23;20328;-93
2023/12/12 00:33:35;;;;;;;1.55;1.45;;;;;;;;;;6097893;23;20044;-93
2023/12/12 00:36:02;;;;;;;1.30;1.20;;;;;;;;;;6097554;23;20025;-93
2023/12/12 00:38:30;;;;;;;2.05;1.50;;;;;;;;;;6098619;23;20034;-93
2023/12/12 00:40:58;;;;;;;1.30;1.30;;;;;;;;;;6097915;23;20354;-93
2023/12/12 00:43:25;;;;;;;1.25;1.15;;;;;;;;;;6098016;23;20069;-93
2023/12/12 00:45:53;;;;;;;2.70;1.30;;;;;;;;;;6098028;23;20071;-93
2023/12/12 00:48:20;;;;;;;1.50;1.40;;;;;;;;;;6115207;23;20018;-93
2023/12/12 00:50:48;;;;;;;3.00;1.55;;;;;;;;;;6101837;23;20387;-93
2023/12/12 00:53:15;;;;;;;3.50;1.80;;;;;;;;;;6097814;23;20397;-93
2023/12/12 00:55:43;;;;;;;1.73;1.42;;;;;;;;;;6097636;23;20022;-93
2023/12/12 00:58:10;;;;;;;1.42;1.30;;;;;;;;;;6097607;23;20393;-94
2023/12/12 01:00:37;;;;;;;3.35;1.45;;;;;;;;;;6097473;23;20022;-93
2023/12/12 01:03:04;;;;;;;2.65;1.33;;;;;;;;;;6098326;23;20097;-93
2023/12/12 01:05:32;;;;;;;2.72;1.30;;;;;;;;;;6097338;23;20018;-93
2023/12/12 01:07:59;;;;;;;2.38;1.30;;;;;;;;;;6097992;23;20014;-93
2023/12/12 01:10:26;;;;;;;2.38;1.70;;;;;;;;;;6097581;23;20025;-92
2023/12/12 01:12:53;;;;;;;2.53;2.20;;;;;;;;;;6097616;23;20022;-92
2023/12/12 01:15:21;;;;;;;4.18;1.60;;;;;;;;;;6097382;23;20101;-93
2023/12/12 01:17:48;;;;;;;3.50;1.60;;;;;;;;;;6097308;23;20080;-93
2023/12/12 01:20:16;;;;;;;5.60;1.40;;;;;;;;;;6097615;23;20068;-92
2023/12/12 01:22:43;;;;;;;1.67;1.27;;;;;;;;;;6097131;23;20083;-92
2023/12/12 01:25:10;;;;;;;4.82;1.50;;;;;;;;;;6098440;23;20022;-93
2023/12/12 01:27:38;;;;;;;2.58;1.40;;;;;;;;;;6097589;23;20083;-93
2023/12/12 01:30:06;;;;;;;4.28;1.60;;;;;;;;;;6097423;23;20025;-93
2023/12/12 01:32:33;;;;;;;1.85;1.50;;;;;;;;;;6097421;23;20018;-93
2023/12/12 01:35:01;;;;;;;1.35;1.25;;;;;;;;;;6097740;23;20022;-93
2023/12/12 01:37:28;;;;;;;1.42;1.05;;;;;;;;;;6098095;23;20385;-92
2023/12/12 01:39:56;;;;;;;3.58;1.23;;;;;;;;;;6097611;23;20350;-94
2023/12/12 01:42:23;;;;;;;2.22;1.23;;;;;;;;;;6097581;23;20041;-92
2023/12/12 01:44:51;;;;;;;3.40;1.25;;;;;;;;;;6097374;23;20021;-93
2023/12/12 01:47:18;;;;;;;1.77;1.40;;;;;;;;;;6097543;23;20026;-94
2023/12/12 01:49:45;;;;;;;2.05;1.42;;;;;;;;;;6097700;23;20014;-92
2023/12/12 01:52:13;;;;;;;2.53;1.52;;;;;;;;;;6097607;23;20105;-93
2023/12/12 01:54:42;;;;;;;2.63;1.48;;;;;;;;;;6097482;23;20014;-92
2023/12/12 01:57:10;;;;;;;1.58;1.10;;;;;;;;;;6097442;23;20458;-93
2023/12/12 01:59:37;;;;;;;1.42;1.33;;;;;;;;;;6097765;23;20080;-93
2023/12/12 02:02:06;;;;;;;2.05;1.50;;;;;;;;;;6098958;23;20030;-92
2023/12/12 02:04:33;;;;;;;2.70;1.05;;;;;;;;;;6115357;23;20018;-93
2023/12/12 02:07:03;;;;;;;1.13;1.13;;;;;;;;;;6099651;23;20377;-92
2023/12/12 02:09:31;;;;;;;2.08;1.05;;;;;;;;;;6097775;23;20018;-93
2023/12/12 02:11:58;;;;;;;4.32;1.48;;;;;;;;;;6097462;23;20027;-93
2023/12/12 02:14:26;;;;;;;2.88;1.75;;;;;;;;;;6097743;23;20022;-93
2023/12/12 02:16:53;;;;;;;3.63;1.33;;;;;;;;;;6097754;23;20083;-92
2023/12/12 02:19:20;;;;;;;1.50;1.30;;;;;;;;;;6097562;23;20045;-93
2023/12/12 02:21:47;;;;;;;7.40;1.55;;;;;;;;;;6097792;23;20524;-93
2023/12/12 02:24:15;;;;;;;1.90;1.38;;;;;;;;;;6097212;23;20041;-92
2023/12/12 02:26:42;;;;;;;1.95;1.70;;;;;;;;;;6091931;23;20030;-92
2023/12/12 02:29:09;;;;;;;2.65;1.95;;;;;;;;;;6092336;23;20015;-92
2023/12/12 02:31:36;;;;;;;2.00;1.70;;;;;;;;;;6092381;23;20520;-93
2023/12/12 02:34:04;;;;;;;3.42;1.73;;;;;;;;;;6091883;23;20026;-91
2023/12/12 02:36:31;;;;;;;1.75;1.65;;;;;;;;;;6092416;23;20355;-92
2023/12/12 02:38:58;;;;;;;3.85;2.10;;;;;;;;;;6092496;23;20025;-92
2023/12/12 02:41:25;;;;;;;2.00;1.90;;;;;;;;;;6092209;23;20034;-92
2023/12/12 02:43:52;;;;;;;2.67;2.08;;;;;;;;;;6092692;23;20025;-92
2023/12/12 02:46:20;;;;;;;2.42;2.25;;;;;;;;;;6093248;23;20022;-92
2023/12/12 02:48:47;;;;;;;4.85;2.45;;;;;;;;;;6092511;23;20018;-92
2023/12/12 02:51:14;;;;;;;5.72;2.13;;;;;;;;;;6092109;23;20092;-92
2023/12/12 02:53:41;;;;;;;7.65;2.78;;;;;;;;;;6092169;23;20019;-92
2023/12/12 02:56:09;;;;;;;10.07;2.53;;;;;;;;;;6092118;23;20470;-92
2023/12/12 02:58:36;;;;;;;4.93;2.92;;;;;;;;;;6092246;23;20018;-93
2023/12/12 03:01:03;;;;;;;4.35;2.40;;;;;;;;;;6092122;23;20093;-93
2023/12/12 03:03:31;;;;;;;5.22;2.40;;;;;;;;;;6092219;23;20030;-93
2023/12/12 03:05:58;;;;;;;3.80;2.60;;;;;;;;;;6092104;23;20455;-92
2023/12/12 03:08:25;;;;;;;3.28;2.58;;;;;;;;;;6092629;23;20076;-91
2023/12/12 03:10:53;;;;;;;9.00;2.20;;;;;;;;;;6092467;23;20022;-93
2023/12/12 03:13:20;;;;;;;4.57;2.05;;;;;;;;;;6092314;23;20018;-92
2023/12/12 03:15:47;;;;;;;2.35;2.08;;;;;;;;;;6091883;23;20080;-92
2023/12/12 03:18:15;;;;;;;5.00;2.17;;;;;;;;;;6098687;23;20026;-92
2023/12/12 03:20:42;;;;;;;4.72;2.13;;;;;;;;;;6105396;23;20014;-92
2023/12/12 03:23:09;;;;;;;6.40;2.47;;;;;;;;;;6092462;23;20443;-93
2023/12/12 03:25:36;;;;;;;3.55;2.30;;;;;;;;;;6091699;23;20022;-92
2023/12/12 03:28:04;;;;;;;6.50;2.38;;;;;;;;;;6096801;23;20048;-92
2023/12/12 03:30:31;;;;;;;4.00;2.00;;;;;;;;;;6097110;23;20014;-93
2023/12/12 03:32:58;;;;;;;3.97;2.45;;;;;;;;;;6097023;23;20021;-91
2023/12/12 03:35:26;;;;;;;6.78;2.42;;;;;;;;;;6096359;23;20018;-93
2023/12/12 03:37:53;;;;;;;4.10;2.15;;;;;;;;;;6096940;23;20459;-93
2023/12/12 03:40:20;;;;;;;5.25;2.65;;;;;;;;;;6096767;23;20018;-93
2023/12/12 03:42:47;;;;;;;5.18;2.50;;;;;;;;;;6097048;23;20022;-92
2023/12/12 03:45:15;;;;;;;7.90;2.50;;;;;;;;;;6096822;23;20138;-93
2023/12/12 03:47:42;;;;;;;5.72;2.60;;;;;;;;;;6097529;23;20029;-93
2023/12/12 03:50:09;;;;;;;11.00;2.83;;;;;;;;;;6098050;23;20105;-93
2023/12/12 03:52:38;;;;;;;6.00;2.40;;;;;;;;;;6098079;23;20045;-93
2023/12/12 03:55:07;;;;;;;8.73;2.50;;;;;;;;;;6098296;23;20019;-93
2023/12/12 03:57:34;;;;;;;3.92;2.70;;;;;;;;;;6098077;23;20026;-93
2023/12/12 04:00:06;;;;;;;4.78;2.17;;;;;;;;;;6097807;23;20014;-93
2023/12/12 04:02:34;;;;;;;3.80;2.25;;;;;;;;;;6097798;23;20022;-93
2023/12/12 04:05:01;;;;;;;9.60;2.30;;;;;;;;;;6097839;23;20014;-93
2023/12/12 04:07:28;;;;;;;6.43;2.60;;;;;;;;;;6097842;23;20025;-93
2023/12/12 04:09:56;;;;;;;7.60;2.58;;;;;;;;;;6098086;23;20028;-93
2023/12/12 04:12:23;;;;;;;5.82;2.40;;;;;;;;;;6098128;23;20018;-93
2023/12/12 04:14:51;;;;;;;6.93;2.30;;;;;;;;;;6097636;23;20029;-92
2023/12/12 04:17:18;;;;;;;7.32;2.45;;;;;;;;;;6099070;23;20075;-92
2023/12/12 04:19:45;;;;;;;6.18;2.53;;;;;;;;;;6099113;23;20398;-93
2023/12/12 04:22:12;;;;;;;7.75;2.70;;;;;;;;;;6098032;23;20029;-93
2023/12/12 04:24:40;;;;;;;5.45;2.70;;;;;;;;;;6098328;23;20076;-92
2023/12/12 04:27:07;;;;;;;6.45;2.75;;;;;;;;;;6093274;23;20026;-92
2023/12/12 04:29:35;;;;;;;7.20;2.60;;;;;;;;;;6093273;23;20019;-93
2023/12/12 04:32:02;;;;;;;8.20;2.42;;;;;;;;;;6093376;23;20088;-93
2023/12/12 04:34:32;;;;;;;8.98;2.83;;;;;;;;;;6110927;22;20018;-93
2023/12/12 04:37:01;;;;;;;6.82;2.75;;;;;;;;;;6099297;22;20030;-93
2023/12/12 04:39:28;;;;;;;7.78;2.70;;;;;;;;;;6093516;23;20018;-93
2023/12/12 04:41:55;;;;;;;6.93;2.60;;;;;;;;;;6092718;23;20027;-93
2023/12/12 04:44:23;;;;;;;8.82;3.15;;;;;;;;;;6092985;23;20018;-93
2023/12/12 04:46:50;;;;;;;7.53;2.92;;;;;;;;;;6093373;23;20045;-93
2023/12/12 04:49:19;;;;;;;9.77;3.30;;;;;;;;;;6092880;23;20053;-93
2023/12/12 04:51:47;;;;;;;8.73;3.25;;;;;;;;;;6093461;23;20026;-93
2023/12/12 04:54:14;;;;;;;8.80;3.10;;;;;;;;;;6092919;23;20014;-93
2023/12/12 04:56:41;;;;;;;11.65;3.78;;;;;;;;;;6092385;23;20027;-93
2023/12/12 04:59:08;;;;;;;6.03;3.25;;;;;;;;;;6092776;23;20014;-92
2023/12/12 05:01:35;;;;;;;14.05;3.80;;;;;;;;;;6092822;23;20022;-92
2023/12/12 05:04:03;;;;;;;20.40;5.25;;;;;;;;;;6093145;23;20026;-93
2023/12/12 05:06:31;;;;;;;17.63;6.20;;;;;;;;;;6093153;23;20320;-93
2023/12/12 05:08:58;;;;;;;16.88;8.68;;;;;;;;;;6093247;23;20021;-92
2023/12/12 05:11:25;;;;;;;12.43;4.70;;;;;;;;;;6093219;23;20022;-92
2023/12/12 05:13:53;;;;;;;13.23;4.60;;;;;;;;;;6093143;23;20014;-93
2023/12/12 05:16:20;;;;;;;14.05;4.57;;;;;;;;;;6092606;23;20447;-93
2023/12/12 05:18:58;;;;;;;12.55;4.43;;;;;;;;;;6093023;23;20021;-93
2023/12/12 05:21:26;;;;;;;17.17;5.03;;;;;;;;;;6092859;23;20054;-93
2023/12/12 05:23:53;;;;;;;19.33;7.70;;;;;;;;;;6093062;23;20069;-93
2023/12/12 05:26:20;;;;;;;16.10;8.05;;;;;;;;;;6097729;23;20075;-93
2023/12/12 05:28:48;;;;;;;13.43;4.20;;;;;;;;;;6097674;23;20067;-93
2023/12/12 05:31:15;;;;;;;18.45;4.53;;;;;;;;;;6097713;23;20407;-93
2023/12/12 05:33:43;;;;;;;13.65;3.83;;;;;;;;;;6097856;23;20022;-92
2023/12/12 05:36:11;;;;;;;10.82;3.58;;;;;;;;;;6097753;23;20454;-93
2023/12/12 05:38:38;;;;;;;11.98;3.80;;;;;;;;;;6097946;23;20022;-92
2023/12/12 05:41:06;;;;;;;12.07;4.82;;;;;;;;;;6097554;23;20018;-93
2023/12/12 05:43:34;;;;;;;10.80;4.72;;;;;;;;;;6097973;23;20304;-92
2023/12/12 05:46:02;;;;;;;15.98;5.30;;;;;;;;;;6097825;23;20060;-93
2023/12/12 05:48:30;;;;;;;16.17;4.80;;;;;;;;;;6101112;23;20076;-93
2023/12/12 05:50:58;;;;;;;9.70;3.58;;;;;;;;;;6115314;22;20017;-93
2023/12/12 05:53:26;;;;;;;9.98;4.13;;;;;;;;;;6099303;23;20022;-92
2023/12/12 05:55:55;;;;;;;9.48;3.60;;;;;;;;;;6097355;23;20033;-93
2023/12/12 05:58:23;;;;;;;13.98;4.13;;;;;;;;;;6098221;23;20466;-93
2023/12/12 06:00:51;;;;;;;13.05;4.45;;;;;;;;;;6097710;23;20025;-93
2023/12/12 06:03:19;;;;;;;10.43;4.43;;;;;;;;;;6097831;23;20378;-93
2023/12/12 06:05:46;;;;;;;12.52;4.70;;;;;;;;;;6097866;23;20022;-93
2023/12/12 06:08:13;;;;;;;12.77;4.05;;;;;;;;;;6097388;23;20022;-92
2023/12/12 06:10:40;;;;;;;11.52;3.80;;;;;;;;;;6097561;23;20018;-92
2023/12/12 06:13:08;;;;;;;13.88;3.85;;;;;;;;;;6097776;23;20018;-93
2023/12/12 06:15:36;;;;;;;13.60;3.63;;;;;;;;;;6097209;23;20089;-93
2023/12/12 06:18:03;;;;;;;8.35;3.50;;;;;;;;;;6097268;23;20072;-93
2023/12/12 06:20:32;;;;;;;11.32;3.20;;;;;;;;;;6123784;23;20053;-93
2023/12/12 06:23:00;;;;;;;8.80;2.63;;;;;;;;;;6098597;23;20022;-93
2023/12/12 06:25:27;;;;;;;11.48;2.88;;;;;;;;;;6097691;23;20018;-93
2023/12/12 06:27:56;;;;;;;10.85;2.55;;;;;;;;;;6097810;23;20028;-93
2023/12/12 06:30:23;;;;;;;8.23;3.00;;;;;;;;;;6097176;23;20447;-93
2023/12/12 06:32:50;;;;;;;9.10;3.40;;;;;;;;;;6097540;23;20101;-93
2023/12/12 06:35:18;;;;;;;11.77;3.17;;;;;;;;;;6097828;23;20285;-93
2023/12/12 06:37:45;;;;;;;11.50;3.35;;;;;;;;;;6097970;23;20404;-94
2023/12/12 06:40:13;;;;;;;16.58;4.30;;;;;;;;;;6098084;23;20093;-91
2023/12/12 06:42:41;;;;;;;14.88;4.65;;;;;;;;;;6097749;23;20048;-93
2023/12/12 06:45:10;;;;;;;10.10;4.43;;;;;;;;;;6097267;23;20025;-93
2023/12/12 06:47:37;;;;;;;19.38;4.75;;;;;;;;;;6098172;23;20026;-93
2023/12/12 06:50:05;;;;;;;19.02;5.47;;;;;;;;;;6098181;23;20093;-93
2023/12/12 06:52:33;;;;;;;14.10;5.07;;;;;;;;;;6098307;23;20324;-93
2023/12/12 06:55:00;;;;;;;11.70;3.97;;;;;;;;;;6097954;23;20021;-93
2023/12/12 06:57:28;;;;;;;14.43;4.07;;;;;;;;;;6097669;23;20022;-93
2023/12/12 06:59:56;;;;;;;11.18;4.43;;;;;;;;;;6097638;23;20018;-93
2023/12/12 07:02:23;;;;;;;12.27;3.80;;;;;;;;;;6097626;23;20022;-93
2023/12/12 07:04:50;;;;;;;14.30;4.40;;;;;;;;;;6111885;23;20001;-93
2023/12/12 07:07:18;;;;;;;20.98;4.00;;;;;;;;;;6111260;22;20046;-93
2023/12/12 07:09:45;;;;;;;11.32;3.67;;;;;;;;;;6097173;23;20018;-93
2023/12/12 07:12:24;;;;;;;14.82;3.97;;;;;;;;;;6100082;23;20029;-93
2023/12/12 07:14:52;;;;;;;9.57;4.00;;;;;;;;;;6097060;23;20021;-94
2023/12/12 07:17:19;;;;;;;20.50;4.97;;;;;;;;;;6096792;23;20026;-93
2023/12/12 07:19:46;;;;;;;11.07;3.95;;;;;;;;;;6097374;23;20098;-93
2023/12/12 07:22:14;;;;;;;13.68;4.38;;;;;;;;;;6097662;23;20105;-94
2023/12/12 07:24:41;;;;;;;12.45;4.03;;;;;;;;;;6097437;23;20030;-93
2023/12/12 07:27:09;;;;;;;16.20;4.50;;;;;;;;;;6097517;23;20076;-93
2023/12/12 07:29:36;;;;;;;16.75;5.35;;;;;;;;;;6097935;23;20030;-93
2023/12/12 07:32:03;;;;;;;37.60;12.73;;;;;;;;;;6097915;23;20343;-94
2023/12/12 07:34:31;;;;;;;27.55;9.45;;;;;;;;;;6097645;23;20091;-94
2023/12/12 07:36:58;;;;;;;32.40;11.57;;;;;;;;;;6097519;23;20096;-93
2023/12/12 07:39:25;;;;;;;31.00;11.02;;;;;;;;;;6097164;23;20422;-94
2023/12/12 07:41:52;;;;;;;21.77;7.45;;;;;;;;;;6097553;23;20026;-94
2023/12/12 07:44:21;;;;;;;16.02;7.72;;;;;;;;;;6097492;23;20018;-94
2023/12/12 07:46:48;;;;;;;21.48;6.32;;;;;;;;;;6097325;23;20053;-93
2023/12/12 07:49:15;;;;;;;19.17;7.13;;;;;;;;;;6097920;23;20045;-93
2023/12/12 07:51:43;;;;;;;22.02;7.15;;;;;;;;;;6097217;23;20049;-93
2023/12/12 07:54:10;;;;;;;21.85;6.93;;;;;;;;;;6122765;23;20026;-93
2023/12/12 07:56:38;;;;;;;25.70;6.57;;;;;;;;;;6096830;23;20072;-93
2023/12/12 07:59:05;;;;;;;23.40;7.38;;;;;;;;;;6097090;23;20021;-93
2023/12/12 08:01:32;;;;;;;13.30;5.50;;;;;;;;;;6097334;23;20018;-93
2023/12/12 08:04:00;;;;;;;18.90;6.15;;;;;;;;;;6096894;23;20026;-93
2023/12/12 08:06:29;;;;;;;14.70;6.63;;;;;;;;;;6098332;23;20026;-94
2023/12/12 08:08:56;;;;;;;15.82;6.20;;;;;;;;;;6097710;23;20026;-94
2023/12/12 08:11:27;;;;;;;21.13;6.55;;;;;;;;;;6097354;23;20351;-93
2023/12/12 08:13:54;;;;;;;18.40;6.10;;;;;;;;;;6097267;23;20022;-93
2023/12/12 08:16:23;;;;;;;16.77;6.82;;;;;;;;;;6096301;23;20033;-93
2023/12/12 08:18:50;;;;;;;16.23;6.50;;;;;;;;;;6099022;23;20100;-94
2023/12/12 08:21:17;;;;;;;20.50;7.05;;;;;;;;;;6115862;23;20026;-93
2023/12/12 08:23:48;;;;;;;13.85;5.57;;;;;;;;;;6099107;23;20026;-94
2023/12/12 08:26:15;;;;;;;16.02;5.20;;;;;;;;;;6096812;23;20025;-94
2023/12/12 08:28:42;;;;;;;15.43;5.38;;;;;;;;;;6096687;23;20014;-93
2023/12/12 08:31:10;;;;;;;15.75;5.75;;;;;;;;;;6096284;23;20520;-94
2023/12/12 08:33:37;;;;;;;19.40;6.45;;;;;;;;;;6098080;23;20030;-94
2023/12/12 08:36:05;;;;;;;8.07;3.95;;;;;;;;;;6098067;23;20018;-93
2023/12/12 08:38:32;;;;;;;18.17;4.97;;;;;;;;;;6097943;23;20343;-93
2023/12/12 08:41:00;;;;;;;12.45;4.55;;;;;;;;;;6098229;23;20108;-93
2023/12/12 08:43:27;;;;;;;20.35;5.40;;;;;;;;;;6097469;23;20029;-94
2023/12/12 08:45:56;;;;;;;8.20;4.43;;;;;;;;;;6097932;23;20018;-93
2023/12/12 08:48:23;;;;;;;21.33;5.63;;;;;;;;;;6098198;23;20093;-94
2023/12/12 08:50:51;;;;;;;20.35;5.65;;;;;;;;;;6098189;23;20018;-93
2023/12/12 08:53:20;;;;;;;13.95;8.70;;;;;;;;;;6098009;23;20045;-94
2023/12/12 08:55:48;;;;;;;18.63;8.20;;;;;;;;;;6097558;23;20029;-93
2023/12/12 08:58:15;;;;;;;19.70;8.02;;;;;;;;;;6098209;23;20378;-93
2023/12/12 09:00:43;;;;;;;20.90;9.32;;;;;;;;;;6098297;23;20022;-94
2023/12/12 09:03:10;;;;;;;22.40;10.10;;;;;;;;;;6097683;23;20018;-94
2023/12/12 09:05:38;;;;;;;31.35;15.00;;;;;;;;;;6098132;23;20093;-93
2023/12/12 09:08:05;;;;;;;26.80;10.90;;;;;;;;;;6098481;23;20029;-94
2023/12/12 09:10:32;;;;;;;36.83;12.15;;;;;;;;;;6098094;23;20324;-94
2023/12/12 09:12:59;;;;;;;26.83;11.40;;;;;;;;;;6098244;23;20026;-93
2023/12/12 09:15:27;;;;;;;43.78;15.38;;;;;;;;;;6098336;23;20020;-94
2023/12/12 09:17:54;;;;;;;29.02;14.05;;;;;;;;;;6098217;23;20451;-94
2023/12/12 09:20:41;;;;;;;31.38;17.98;;;;;;;;;;6102789;23;20018;-94
2023/12/12 09:23:09;;;;;;;27.10;14.50;;;;;;;;;;6098251;23;20028;-93
2023/12/12 09:25:36;;;;;;;31.90;12.85;;;;;;;;;;6097797;23;20405;-93
2023/12/12 09:28:04;;;;;;;26.42;13.70;;;;;;;;;;6097841;23;20097;-94
2023/12/12 09:30:31;;;;;;;26.48;13.60;;;;;;;;;;6098122;23;20033;-94
2023/12/12 09:32:58;;;;;;;24.75;13.75;;;;;;;;;;6098054;23;20096;-92
2023/12/12 09:35:26;;;;;;;28.33;13.65;;;;;;;;;;6112136;23;20018;-93
2023/12/12 09:37:53;;;;;;;28.33;16.73;;;;;;;;;;6107872;23;20026;-95
2023/12/12 09:40:21;;;;;;;34.03;20.20;;;;;;;;;;6099091;23;20512;-93
2023/12/12 09:42:49;;;;;;;22.98;13.10;;;;;;;;;;6099006;23;20408;-95
2023/12/12 09:45:16;;;;;;;28.85;11.18;;;;;;;;;;6097937;23;20022;-94
2023/12/12 09:47:44;;;;;;;21.83;10.15;;;;;;;;;;6098482;23;20018;-95
2023/12/12 09:50:12;;;;;;;20.60;9.23;;;;;;;;;;6098323;23;20018;-94
2023/12/12 09:52:40;;;;;;;24.98;11.55;;;;;;;;;;6098603;23;20022;-95
2023/12/12 09:55:07;;;;;;;27.13;12.85;;;;;;;;;;6098409;23;20022;-94
2023/12/12 09:57:35;;;;;;;29.92;14.52;;;;;;;;;;6098436;23;20022;-94
2023/12/12 10:00:04;;;;;;;27.80;14.35;;;;;;;;;;6098539;23;20450;-94
2023/12/12 10:02:33;;;;;;;23.05;9.73;;;;;;;;;;6098009;23;20022;-95
2023/12/12 10:05:01;;;;;;;30.23;12.80;;;;;;;;;;6097911;23;20014;-94
2023/12/12 10:07:29;;;;;;;52.63;31.80;;;;;;;;;;6098196;23;20100;-94
2023/12/12 10:09:57;;;;;;;28.52;14.35;;;;;;;;;;6098054;23;20077;-93
2023/12/12 10:12:24;;;;;;;18.52;8.00;;;;;;;;;;6098034;23;20032;-93
2023/12/12 10:14:55;;;;;;;14.98;6.88;;;;;;;;;;6099395;23;20022;-94
2023/12/12 10:17:25;;;;;;;20.85;5.63;;;;;;;;;;6098384;23;20022;-94
2023/12/12 10:20:00;;;;;;;16.30;7.72;;;;;;;;;;6098495;23;20026;-95
2023/12/12 10:22:31;;;;;;;15.07;4.70;;;;;;;;;;6098301;23;20022;-95
2023/12/12 10:25:13;;;;;;;15.02;4.90;;;;;;;;;;6098551;23;20018;-94
2023/12/12 10:27:44;;;;;;;12.18;4.35;;;;;;;;;;6098658;23;20018;-94
2023/12/12 10:30:14;;;;;;;14.75;4.00;;;;;;;;;;6098418;23;20055;-94
2023/12/12 10:32:43;;;;;;;81.05;35.85;;;;;;;;;;6098536;23;20071;-94
2023/12/12 10:35:10;;;;;;;15.43;5.93;;;;;;;;;;6098378;23;20014;-94
2023/12/12 10:37:38;;;;;;;20.10;7.75;;;;;;;;;;6098461;23;20022;-94
2023/12/12 10:40:15;;;;;;;10.93;3.95;;;;;;;;;;6098169;23;20018;-94
2023/12/12 10:42:43;;;;;;;10.90;3.53;;;;;;;;;;6097977;23;20359;-94
2023/12/12 10:45:12;;;;;;;15.35;2.97;;;;;;;;;;6098262;23;20022;-93
2023/12/12 10:47:45;;;;;;;34.72;20.90;;;;;;;;;;6098667;23;20014;-94
2023/12/12 10:50:13;;;;;;;11.98;5.38;;;;;;;;;;6111154;23;20037;-94
2023/12/12 10:52:41;;;;;;;12.18;4.40;;;;;;;;;;6107144;23;20087;-93
2023/12/12 10:55:10;;;;;;;11.13;3.80;;;;;;;;;;6098323;23;20021;-93
2023/12/12 10:57:45;;;;;;;14.05;2.90;;;;;;;;;;6098328;23;20054;-94
2023/12/12 11:00:14;;;;;;;10.88;3.33;;;;;;;;;;6098242;23;20101;-94
2023/12/12 11:02:46;;;;;;;13.90;2.92;;;;;;;;;;6099443;23;20022;-94
2023/12/12 11:05:15;;;;;;;11.20;2.40;;;;;;;;;;6098361;23;20022;-93
2023/12/12 11:07:47;;;;;;;11.52;3.70;;;;;;;;;;6097723;23;20091;-94
2023/12/12 11:10:16;;;;;;;;;;;;;;;;;;6099173;23;20029;-92
2023/12/12 11:12:45;;;;;;;14.10;2.72;;;;;;;;;;6123375;23;19991;-93
2023/12/12 11:15:13;;;;;;;11.60;3.15;;;;;;;;;;6098007;23;20018;-94
2023/12/12 11:17:41;;;;;;;13.88;3.10;;;;;;;;;;6097303;23;20022;-93
2023/12/12 11:20:13;;;;;;;16.35;2.85;;;;;;;;;;6098202;23;20028;-93
2023/12/12 11:22:41;;;;;;;11.98;3.50;;;;;;;;;;6099936;23;20025;-93
2023/12/12 11:25:16;;;;;;;8.05;2.38;;;;;;;;;;6126142;23;20018;-93
2023/12/12 11:27:46;;;;;;;12.82;3.15;;;;;;;;;;6097526;23;20390;-93
2023/12/12 11:30:14;;;;;;;16.90;2.70;;;;;;;;;;6097501;23;20461;-93
2023/12/12 11:32:45;;;;;;;18.13;2.92;;;;;;;;;;6097978;23;20026;-93
2023/12/12 11:35:28;;;;;;;13.70;2.95;;;;;;;;;;6097608;23;20466;-93
2023/12/12 11:37:58;;;;;;;7.65;2.15;;;;;;;;;;6097386;23;20025;-93
2023/12/12 11:40:26;;;;;;;7.50;2.22;;;;;;;;;;6097584;23;20513;-93
2023/12/12 11:42:56;;;;;;;17.80;2.78;;;;;;;;;;6098106;23;20022;-93
2023/12/12 11:45:34;;;;;;;19.23;3.05;;;;;;;;;;6098137;23;20048;-93
2023/12/12 11:48:06;;;;;;;16.52;2.55;;;;;;;;;;6098211;23;20036;-92
2023/12/12 11:50:34;;;;;;;11.43;2.58;;;;;;;;;;6097871;23;20075;-93
2023/12/12 11:53:02;;;;;;;14.73;2.30;;;;;;;;;;6097834;23;20050;-92
2023/12/12 11:55:32;;;;;;;13.45;3.15;;;;;;;;;;6097500;23;20022;-92
2023/12/12 11:58:00;;;;;;;14.40;2.45;;;;;;;;;;6097931;23;20022;-93
2023/12/12 12:00:31;;;;;;;9.48;2.30;;;;;;;;;;6097749;23;20022;-92
2023/12/12 12:02:59;;;;;;;11.05;2.55;;;;;;;;;;6097562;23;20246;-92
2023/12/12 12:05:28;;;;;;;11.35;2.47;;;;;;;;;;6115207;22;20022;-91
2023/12/12 12:07:55;;;;;;;14.73;3.20;;;;;;;;;;6100492;23;20048;-93
2023/12/12 12:10:26;;;;;;;12.13;2.95;;;;;;;;;;6098434;23;20022;-93
2023/12/12 12:12:54;;;;;;;16.98;2.80;;;;;;;;;;6099354;23;20030;-93
2023/12/12 12:15:22;;;;;;;12.70;3.22;;;;;;;;;;6098390;23;20014;-92
2023/12/12 12:17:49;;;;;;;11.13;3.28;;;;;;;;;;6098255;23;20026;-92
2023/12/12 12:20:17;;;;;;;13.80;2.88;;;;;;;;;;6098430;23;20067;-93
2023/12/12 12:22:44;;;;;;;14.10;2.90;;;;;;;;;;6098587;23;20663;-93
2023/12/12 12:25:12;;;;;;;12.95;2.75;;;;;;;;;;6098434;23;20018;-93
2023/12/12 12:27:49;;;;;;;10.73;3.05;;;;;;;;;;6098433;23;20022;-93
2023/12/12 12:30:17;;;;;;;12.65;2.80;;;;;;;;;;6098917;23;20045;-92
2023/12/12 12:32:56;;;;;;;13.57;3.10;;;;;;;;;;6098735;23;20021;-92
2023/12/12 12:35:24;;;;;;;8.85;2.67;;;;;;;;;;6098350;23;20520;-93
2023/12/12 12:37:53;;;;;;;13.05;2.97;;;;;;;;;;6098205;23;20088;-93
2023/12/12 12:40:37;;;;;;;11.35;2.80;;;;;;;;;;6098436;23;20076;-92
2023/12/12 12:43:15;;;;;;;11.90;3.33;;;;;;;;;;6098000;23;20018;-93
2023/12/12 12:45:42;;;;;;;12.27;3.67;;;;;;;;;;6098838;23;20108;-93
2023/12/12 12:48:09;;;;;;;17.10;2.97;;;;;;;;;;6098174;23;20083;-92
2023/12/12 12:50:39;;;;;;;14.23;3.05;;;;;;;;;;6098294;23;20022;-92
2023/12/12 12:53:06;;;;;;;16.60;2.67;;;;;;;;;;6098488;23;20052;-93
2023/12/12 12:55:35;;;;;;;12.02;2.80;;;;;;;;;;6098950;23;20056;-93
2023/12/12 12:58:02;;;;;;;20.35;3.65;;;;;;;;;;6097963;23;20350;-93
2023/12/12 13:00:29;;;;;;;8.23;2.47;;;;;;;;;;6098718;23;20045;-93
2023/12/12 13:02:57;;;;;;;13.10;2.65;;;;;;;;;;6098785;23;20324;-93
2023/12/12 13:05:26;;;;;;;9.88;2.70;;;;;;;;;;6098530;23;20025;-93
2023/12/12 13:07:53;;;;;;;13.65;3.45;;;;;;;;;;6098245;23;20450;-93
2023/12/12 13:10:21;;;;;;;14.27;3.40;;;;;;;;;;6098510;23;20021;-94
2023/12/12 13:13:05;;;;;;;10.07;2.20;;;;;;;;;;6102195;23;20089;-92
2023/12/12 13:15:33;;;;;;;12.93;2.85;;;;;;;;;;6098264;23;20018;-93
2023/12/12 13:18:00;;;;;;;13.70;2.78;;;;;;;;;;6098691;23;20087;-93
2023/12/12 13:20:27;;;;;;;13.30;3.22;;;;;;;;;;6117684;22;20013;-93
2023/12/12 13:22:55;;;;;;;12.07;2.78;;;;;;;;;;6100199;23;20018;-93
2023/12/12 13:25:24;;;;;;;21.05;3.83;;;;;;;;;;6099716;23;20053;-93
2023/12/12 13:27:51;;;;;;;14.27;2.88;;;;;;;;;;6098039;23;20022;-93
2023/12/12 13:30:19;;;;;;;11.38;2.80;;;;;;;;;;6098876;23;20516;-93
2023/12/12 13:32:48;;;;;;;11.75;2.65;;;;;;;;;;6098204;23;20443;-93
2023/12/12 13:35:15;;;;;;;15.57;3.22;;;;;;;;;;6098157;23;20018;-93
2023/12/12 13:38:01;;;;;;;9.93;2.60;;;;;;;;;;6101825;23;20022;-92
2023/12/12 13:40:28;;;;;;;14.70;3.20;;;;;;;;;;6098553;23;20018;-93
2023/12/12 13:42:56;;;;;;;14.35;3.28;;;;;;;;;;6098431;23;20413;-93
2023/12/12 13:45:23;;;;;;;15.98;3.25;;;;;;;;;;6098368;23;20076;-93
2023/12/12 13:47:50;;;;;;;16.17;3.55;;;;;;;;;;6098254;23;20022;-93
2023/12/12 13:50:18;;;;;;;11.32;5.03;;;;;;;;;;6098247;23;20042;-93
2023/12/12 13:52:45;;;;;;;27.17;12.32;;;;;;;;;;6098249;23;20069;-92
2023/12/12 13:55:12;;;;;;;37.70;17.60;;;;;;;;;;6098303;23;20516;-93
2023/12/12 13:57:40;;;;;;;24.42;10.65;;;;;;;;;;6098491;23;20105;-93
2023/12/12 14:00:10;;;;;;;22.65;10.10;;;;;;;;;;6098228;23;20075;-93
2023/12/12 14:02:40;;;;;;;24.67;10.05;;;;;;;;;;6099390;23;20065;-93
2023/12/12 14:05:09;;;;;;;24.75;11.60;;;;;;;;;;6123945;23;20026;-93
2023/12/12 14:07:37;;;;;;;22.85;9.05;;;;;;;;;;6098758;23;20050;-94
2023/12/12 14:10:06;;;;;;;17.38;6.13;;;;;;;;;;6098739;23;20026;-93
2023/12/12 14:12:34;;;;;;;13.15;4.90;;;;;;;;;;6098491;23;20022;-93
2023/12/12 14:15:02;;;;;;;11.43;4.72;;;;;;;;;;6098527;23;20079;-94
2023/12/12 14:17:30;;;;;;;20.20;5.10;;;;;;;;;;6098638;23;20026;-93
2023/12/12 14:19:58;;;;;;;12.43;4.43;;;;;;;;;;6098765;23;20083;-94
2023/12/12 14:22:26;;;;;;;15.35;4.25;;;;;;;;;;6098178;23;20070;-93
2023/12/12 14:24:53;;;;;;;11.50;4.22;;;;;;;;;;6098202;23;20052;-93
2023/12/12 14:27:20;;;;;;;14.20;4.40;;;;;;;;;;6097653;23;20026;-93
2023/12/12 14:29:47;;;;;;;16.13;6.10;;;;;;;;;;6097375;23;20018;-93
2023/12/12 14:32:17;;;;;;;21.02;6.03;;;;;;;;;;6098005;23;20019;-93
2023/12/12 14:34:44;;;;;;;16.85;5.40;;;;;;;;;;6113440;22;20022;-93
2023/12/12 14:37:12;;;;;;;21.95;7.75;;;;;;;;;;6104283;22;20025;-93
2023/12/12 14:39:40;;;;;;;20.75;9.68;;;;;;;;;;6097889;23;20394;-93